Time;durP1;ratioP1;P1;durP2;ratioP2;P2;SDS_P1;SDS_P2;PMS_P1;PMS_P2;Temp;Humidity;BMP_temperature;BMP_pressure;BME280_temperature;BME280_humidity;BME280_pressure;Samples;Min_cycle;Max_cycle;Signal;HPM_P1;HPM_P2
2021/10/26 00:01:37;;;;;;;23.27;11.20;;;;;;;15.23;65.35;100945.63;4991309;28;20133;-69
2021/10/26 00:04:07;;;;;;;22.57;11.23;;;;;;;15.27;65.64;100946.69;4988078;28;20145;-64
2021/10/26 00:06:34;;;;;;;23.33;11.68;;;;;;;15.16;65.38;100929.13;4992182;28;20074;-61
2021/10/26 00:09:02;;;;;;;18.40;10.33;;;;;;;15.31;65.49;100953.38;4986524;28;20051;-67
2021/10/26 00:11:29;;;;;;;19.53;11.13;;;;;;;15.27;65.42;100954.31;4987686;28;20130;-63
2021/10/26 00:13:56;;;;;;;22.57;10.33;;;;;;;15.15;65.44;100947.16;4981846;28;20146;-62
2021/10/26 00:16:23;;;;;;;24.30;10.30;;;;;;;15.16;65.55;100951.63;4987609;28;20129;-66
2021/10/26 00:18:50;;;;;;;30.23;10.13;;;;;;;15.15;65.88;100949.97;4984332;28;20050;-61
2021/10/26 00:21:17;;;;;;;25.53;11.67;;;;;;;15.17;65.79;100941.19;4981841;28;20126;-61
2021/10/26 00:23:44;;;;;;;22.67;11.57;;;;;;;15.23;65.92;100939.16;4979014;28;20094;-59
2021/10/26 00:26:11;;;;;;;27.63;10.63;;;;;;;15.24;65.95;100950.09;4982488;28;20145;-60
2021/10/26 00:28:38;;;;;;;19.50;11.40;;;;;;;15.24;65.77;100940.84;4988244;28;20078;-64
2021/10/26 00:31:05;;;;;;;21.77;11.60;;;;;;;15.24;66.12;100936.03;4985176;28;20125;-60
2021/10/26 00:33:32;;;;;;;20.97;11.03;;;;;;;15.15;66.05;100919.00;4985595;28;20073;-62
2021/10/26 00:35:59;;;;;;;25.93;11.03;;;;;;;15.15;65.97;100926.63;4991398;28;20125;-58
2021/10/26 00:38:26;;;;;;;28.27;11.13;;;;;;;15.23;66.04;100941.97;4989434;28;20465;-58
2021/10/26 00:40:53;;;;;;;27.47;10.80;;;;;;;15.11;65.83;100926.38;4977997;28;20126;-58
2021/10/26 00:43:20;;;;;;;27.57;11.10;;;;;;;15.10;65.95;100932.31;4984075;28;20094;-64
2021/10/26 00:45:47;;;;;;;22.47;11.13;;;;;;;15.13;65.95;100940.97;4987473;28;20050;-67
2021/10/26 00:48:14;;;;;;;23.70;12.10;;;;;;;15.04;66.00;100913.81;4983883;28;20454;-67
2021/10/26 00:50:41;;;;;;;30.10;11.20;;;;;;;15.12;66.08;100933.69;4990464;28;20081;-66
2021/10/26 00:53:08;;;;;;;25.43;12.20;;;;;;;15.17;66.22;100927.13;4989349;28;20093;-69
2021/10/26 00:55:35;;;;;;;23.73;11.23;;;;;;;15.24;66.41;100923.94;4989752;28;20105;-69
2021/10/26 00:58:02;;;;;;;22.40;11.00;;;;;;;15.35;66.54;100919.84;4986061;28;20100;-71
2021/10/26 01:00:29;;;;;;;29.63;12.33;;;;;;;15.27;66.61;100907.31;4984083;28;20074;-69
2021/10/26 01:02:56;;;;;;;22.03;9.90;;;;;;;15.36;66.57;100918.72;4985343;28;20038;-67
2021/10/26 01:05:23;;;;;;;23.27;11.90;;;;;;;15.32;65.93;100926.09;4990423;28;20410;-66
2021/10/26 01:07:50;;;;;;;20.27;12.00;;;;;;;15.21;65.85;100918.94;4984771;28;20051;-71
2021/10/26 01:10:18;;;;;;;22.47;11.80;;;;;;;15.15;65.75;100906.94;4989709;28;20448;-68
2021/10/26 01:12:45;;;;;;;27.47;11.27;;;;;;;15.17;66.33;100913.91;4990581;28;20074;-65
2021/10/26 01:15:13;;;;;;;19.07;10.53;;;;;;;15.07;66.08;100893.53;4978886;28;20082;-64
2021/10/26 01:17:40;;;;;;;20.17;9.17;;;;;;;15.11;66.51;100917.94;4984540;28;20145;-63
2021/10/26 01:20:07;;;;;;;19.87;9.60;;;;;;;14.89;67.04;100867.06;4983191;28;20137;-66
2021/10/26 01:22:39;;;;;;;23.03;10.50;;;;;;;15.29;66.96;100915.47;4989053;28;20139;-63
2021/10/26 01:25:08;;;;;;;22.80;10.97;;;;;;;15.31;67.10;100908.38;4991197;28;20082;-63
2021/10/26 01:27:43;;;;;;;21.95;9.75;;;;;;;15.37;67.09;100911.94;4979776;28;20129;-64
2021/10/26 01:30:13;;;;;;;19.03;9.47;;;;;;;15.38;67.21;100914.47;4986360;28;20129;-61
2021/10/26 01:32:40;;;;;;;13.68;8.45;;;;;;;15.45;66.89;100918.84;4983361;28;20139;-62
2021/10/26 01:35:08;;;;;;;23.13;9.00;;;;;;;15.46;66.85;100912.13;4979606;28;20562;-60
2021/10/26 01:37:35;;;;;;;18.57;8.30;;;;;;;15.41;66.62;100908.22;4981322;28;20126;-63
2021/10/26 01:40:02;;;;;;;17.93;7.47;;;;;;;15.44;66.58;100911.56;4987756;28;20133;-61
2021/10/26 01:42:29;;;;;;;15.57;7.73;;;;;;;15.44;66.24;100917.19;4988728;28;20096;-63
2021/10/26 01:44:57;;;;;;;17.43;8.73;;;;;;;15.46;65.88;100915.75;4986722;28;20145;-63
2021/10/26 01:47:23;;;;;;;20.53;9.50;;;;;;;15.57;65.64;100922.06;4981849;28;20129;-64
2021/10/26 01:49:50;;;;;;;20.67;8.53;;;;;;;15.56;65.60;100917.59;4989098;28;20046;-63
2021/10/26 01:52:17;;;;;;;15.30;7.67;;;;;;;15.46;65.39;100895.22;4981216;28;20141;-63
2021/10/26 01:54:45;;;;;;;16.30;8.00;;;;;;;15.58;65.25;100918.09;4988135;28;20550;-64
2021/10/26 01:57:16;;;;;;;19.73;7.80;;;;;;;15.55;65.11;100913.06;4985131;28;20476;-65
2021/10/26 01:59:43;;;;;;;12.73;6.97;;;;;;;15.40;64.63;100884.03;4974408;28;20078;-64
2021/10/26 02:02:10;;;;;;;12.47;6.77;;;;;;;15.53;64.78;100915.38;4980103;28;20259;-65
2021/10/26 02:04:37;;;;;;;13.60;6.50;;;;;;;15.37;64.52;100887.44;4983049;28;20439;-65
2021/10/26 02:07:04;;;;;;;13.57;6.23;;;;;;;15.68;64.08;100926.41;4983182;28;20082;-66
2021/10/26 02:09:32;;;;;;;14.33;5.87;;;;;;;15.62;63.83;100916.34;4987774;28;20130;-63
2021/10/26 02:12:00;;;;;;;13.73;5.63;;;;;;;15.64;63.68;100922.50;4988628;28;20097;-64
2021/10/26 02:14:27;;;;;;;17.30;8.30;;;;;;;15.57;63.65;100910.81;4991279;28;20972;-63
2021/10/26 02:16:54;;;;;;;16.00;8.20;;;;;;;15.54;63.68;100928.31;4983009;28;20172;-63
2021/10/26 02:19:21;;;;;;;10.67;6.17;;;;;;;15.48;63.60;100923.88;4982259;28;20125;-64
2021/10/26 02:21:48;;;;;;;14.43;6.10;;;;;;;15.40;63.88;100916.97;4984374;28;20069;-65
2021/10/26 02:24:14;;;;;;;16.70;6.43;;;;;;;15.38;63.56;100907.97;4982890;28;20069;-64
2021/10/26 02:26:41;;;;;;;16.00;5.90;;;;;;;15.46;63.68;100910.13;4986915;28;20413;-63
2021/10/26 02:29:08;;;;;;;12.63;5.57;;;;;;;15.37;63.53;100907.16;4981455;28;20089;-64
2021/10/26 02:31:35;;;;;;;11.23;5.80;;;;;;;15.37;63.32;100901.53;4978210;28;20126;-63
2021/10/26 02:34:02;;;;;;;15.93;8.57;;;;;;;15.39;63.36;100915.31;4976500;28;20054;-64
2021/10/26 02:36:29;;;;;;;17.93;8.37;;;;;;;15.22;63.09;100901.75;4979660;28;20105;-63
2021/10/26 02:38:56;;;;;;;17.27;8.30;;;;;;;15.09;63.12;100903.34;4980269;28;20199;-64
2021/10/26 02:41:23;;;;;;;15.73;8.50;;;;;;;15.00;63.26;100904.31;4977397;28;20046;-64
2021/10/26 02:43:50;;;;;;;18.40;8.67;;;;;;;14.88;63.24;100905.59;4977814;28;20078;-65
2021/10/26 02:46:17;;;;;;;19.50;8.13;;;;;;;14.78;63.40;100914.16;4981015;28;20051;-63
2021/10/26 02:48:47;;;;;;;16.53;9.00;;;;;;;14.68;63.46;100905.84;4979613;28;20097;-63
2021/10/26 02:51:15;;;;;;;;;;;;;;;14.50;63.71;100903.78;4988916;28;20126;-63
2021/10/26 02:53:42;;;;;;;13.30;7.47;;;;;;;14.51;63.73;100906.31;4988333;28;19957;-66
2021/10/26 02:56:09;;;;;;;12.73;7.87;;;;;;;14.45;64.03;100901.84;4989131;28;20125;-66
2021/10/26 02:58:36;;;;;;;17.60;8.47;;;;;;;14.41;64.26;100903.59;4976912;28;20050;-65
2021/10/26 03:01:03;;;;;;;19.53;7.07;;;;;;;14.38;64.38;100909.81;4987291;28;20133;-69
2021/10/26 03:03:30;;;;;;;18.03;7.53;;;;;;;14.38;64.38;100907.00;4981770;28;20058;-68
2021/10/26 03:05:57;;;;;;;11.77;6.37;;;;;;;14.40;64.71;100899.94;4981808;28;20132;-69
2021/10/26 03:08:24;;;;;;;11.47;5.90;;;;;;;14.50;64.90;100906.59;4989673;28;20078;-68
2021/10/26 03:10:51;;;;;;;13.17;5.17;;;;;;;14.56;64.91;100897.81;4980029;28;20133;-68
2021/10/26 03:13:18;;;;;;;9.43;4.07;;;;;;;14.51;64.57;100885.81;4988185;28;20070;-72
2021/10/26 03:15:44;;;;;;;8.30;3.97;;;;;;;14.64;64.46;100904.78;4990222;28;20082;-70
2021/10/26 03:18:11;;;;;;;8.73;4.57;;;;;;;14.77;63.97;100909.69;4985710;28;20474;-74
2021/10/26 03:20:39;;;;;;;8.07;3.83;;;;;;;14.83;63.70;100908.44;4985064;28;20125;-73
2021/10/26 03:23:06;;;;;;;9.30;5.23;;;;;;;14.87;63.44;100909.56;4981660;28;20074;-74
2021/10/26 03:25:33;;;;;;;11.03;4.80;;;;;;;14.82;63.08;100889.09;4971393;28;20579;-69
2021/10/26 03:28:00;;;;;;;9.87;4.27;;;;;;;14.96;63.16;100897.63;4981253;28;20461;-69
2021/10/26 03:30:27;;;;;;;9.60;4.03;;;;;;;14.97;62.98;100905.75;4980321;28;20077;-68
2021/10/26 03:32:53;;;;;;;7.10;4.23;;;;;;;14.89;62.93;100881.13;4983533;28;20058;-66
2021/10/26 03:35:20;;;;;;;9.80;4.97;;;;;;;14.97;62.87;100902.09;4979392;28;20126;-71
2021/10/26 03:37:47;;;;;;;12.23;6.70;;;;;;;14.90;62.71;100903.28;4987087;28;20134;-70
2021/10/26 03:40:14;;;;;;;9.33;6.23;;;;;;;14.73;62.46;100897.34;4985626;28;20131;-71
2021/10/26 03:42:41;;;;;;;13.03;6.37;;;;;;;14.58;62.77;100894.72;4985501;28;20149;-71
2021/10/26 03:45:09;;;;;;;13.73;6.57;;;;;;;14.42;62.59;100892.03;4990881;28;20469;-71
2021/10/26 03:47:39;;;;;;;8.60;4.97;;;;;;;14.23;63.10;100865.88;4985145;28;20546;-70
2021/10/26 03:50:08;;;;;;;15.90;6.70;;;;;;;14.52;63.29;100909.97;4981953;28;20146;-70
2021/10/26 03:52:35;;;;;;;12.03;6.50;;;;;;;14.45;63.66;100902.69;4985460;28;20385;-70
2021/10/26 03:55:04;;;;;;;13.87;5.47;;;;;;;14.44;63.31;100894.56;4988913;28;20525;-71
2021/10/26 03:57:31;;;;;;;10.57;4.50;;;;;;;14.51;63.41;100914.75;4989129;28;20086;-71
2021/10/26 03:59:57;;;;;;;6.90;4.10;;;;;;;14.42;63.11;100897.66;4990075;28;20121;-72
2021/10/26 04:02:27;;;;;;;7.50;3.70;;;;;;;14.58;63.07;100905.97;4983766;28;20129;-72
2021/10/26 04:05:00;;;;;;;7.50;4.53;;;;;;;14.55;62.72;100895.31;4990032;28;20046;-72
2021/10/26 04:07:27;;;;;;;13.33;5.97;;;;;;;14.59;62.77;100922.50;4985066;28;20052;-71
2021/10/26 04:10:07;;;;;;;11.70;6.47;;;;;;;14.52;62.58;100921.22;4986175;28;20046;-72
2021/10/26 04:12:34;;;;;;;12.10;6.65;;;;;;;14.41;62.56;100910.03;4978090;28;20079;-73
2021/10/26 04:15:01;;;;;;;12.57;6.53;;;;;;;14.30;62.67;100916.91;4987104;28;20050;-66
2021/10/26 04:17:28;;;;;;;14.00;5.33;;;;;;;14.25;62.80;100916.94;4978852;28;20078;-66
2021/10/26 04:19:57;;;;;;;8.87;3.90;;;;;;;14.18;63.01;100908.03;4982539;28;20074;-66
2021/10/26 04:22:25;;;;;;;4.88;2.70;;;;;;;14.23;63.69;100910.81;4991175;28;20435;-65
2021/10/26 04:24:53;;;;;;;4.60;2.30;;;;;;;14.39;62.92;100909.53;4988339;28;20051;-63
2021/10/26 04:27:20;;;;;;;6.13;2.93;;;;;;;14.45;62.54;100902.69;4986738;28;20571;-64
2021/10/26 04:29:47;;;;;;;4.03;2.27;;;;;;;14.60;62.25;100904.53;4994109;28;20085;-67
2021/10/26 04:32:16;;;;;;;6.63;2.63;;;;;;;14.73;61.81;100907.75;4988351;28;20082;-62
2021/10/26 04:34:43;;;;;;;5.83;2.70;;;;;;;14.84;61.62;100907.34;4990528;28;20085;-72
2021/10/26 04:37:10;;;;;;;10.87;4.50;;;;;;;14.92;61.62;100900.19;4989651;28;20126;-69
2021/10/26 04:39:42;;;;;;;11.63;5.87;;;;;;;14.90;61.23;100908.09;4992550;28;20137;-74
2021/10/26 04:42:09;;;;;;;17.00;7.07;;;;;;;14.83;61.35;100902.84;4989067;28;20074;-74
2021/10/26 04:44:37;;;;;;;13.03;7.43;;;;;;;14.72;61.36;100906.09;4989957;28;20471;-72
2021/10/26 04:47:05;;;;;;;18.70;7.23;;;;;;;14.60;61.74;100901.72;4988412;28;20055;-72
2021/10/26 04:49:32;;;;;;;13.80;8.20;;;;;;;14.41;61.65;100886.75;4979236;28;20054;-72
2021/10/26 04:52:01;;;;;;;19.80;8.77;;;;;;;14.40;61.95;100911.19;4989906;28;20081;-72
2021/10/26 04:54:29;;;;;;;21.00;9.23;;;;;;;14.34;62.30;100912.38;4988115;28;20054;-70
2021/10/26 04:56:56;;;;;;;15.33;9.20;;;;;;;14.39;62.55;100926.38;4981155;28;20483;-70
2021/10/26 04:59:23;;;;;;;15.30;9.93;;;;;;;14.35;62.50;100910.41;4992162;28;20042;-71
2021/10/26 05:01:49;;;;;;;17.37;10.47;;;;;;;14.42;62.46;100924.94;4985334;28;20046;-71
2021/10/26 05:04:17;;;;;;;19.90;10.77;;;;;;;14.48;62.43;100922.91;4986915;28;20052;-74
2021/10/26 05:06:44;;;;;;;19.47;9.77;;;;;;;14.47;62.37;100930.50;4987684;28;20129;-74
2021/10/26 05:09:10;;;;;;;19.27;9.33;;;;;;;14.39;62.23;100934.81;4988816;28;20081;-74
2021/10/26 05:11:37;;;;;;;21.30;9.50;;;;;;;14.34;62.35;100940.47;4986911;28;20141;-64
2021/10/26 05:14:04;;;;;;;17.93;8.87;;;;;;;14.19;62.34;100926.59;4980152;28;20477;-63
2021/10/26 05:16:32;;;;;;;20.77;8.83;;;;;;;14.19;62.58;100932.22;4983519;28;20058;-60
2021/10/26 05:19:01;;;;;;;15.77;8.07;;;;;;;14.14;62.77;100932.25;4988620;28;20054;-60
2021/10/26 05:21:28;;;;;;;16.73;8.43;;;;;;;14.12;63.11;100934.50;4986575;28;20080;-64
2021/10/26 05:23:55;;;;;;;12.13;7.07;;;;;;;14.07;63.24;100917.72;4990345;28;20089;-64
2021/10/26 05:26:22;;;;;;;10.73;6.20;;;;;;;14.21;63.24;100938.34;4987221;28;20153;-63
2021/10/26 05:28:50;;;;;;;13.13;5.93;;;;;;;14.26;63.26;100926.25;4992169;28;20050;-67
2021/10/26 05:31:18;;;;;;;10.67;4.50;;;;;;;14.25;63.02;100925.38;4980692;28;20141;-63
2021/10/26 05:33:46;;;;;;;12.03;3.60;;;;;;;14.27;62.89;100922.28;4984116;28;20061;-63
2021/10/26 05:36:13;;;;;;;8.17;3.10;;;;;;;14.36;62.59;100926.97;4987412;28;20066;-64
2021/10/26 05:38:40;;;;;;;7.60;4.10;;;;;;;14.44;62.32;100940.38;4991151;28;20169;-63
2021/10/26 05:41:11;;;;;;;7.20;3.20;;;;;;;14.46;62.11;100929.69;4985154;28;20398;-63
2021/10/26 05:43:39;;;;;;;7.60;3.83;;;;;;;14.50;61.99;100935.56;4981593;28;20134;-64
2021/10/26 05:46:07;;;;;;;4.93;2.83;;;;;;;14.61;61.66;100950.34;4983261;28;20069;-65
2021/10/26 05:48:34;;;;;;;4.03;1.70;;;;;;;14.61;61.43;100939.94;4985465;28;20323;-64
2021/10/26 05:51:03;;;;;;;5.73;2.43;;;;;;;14.71;61.17;100950.22;4986810;28;20053;-65
2021/10/26 05:53:31;;;;;;;3.70;2.50;;;;;;;14.69;60.97;100949.69;4984311;28;20078;-65
2021/10/26 05:55:58;;;;;;;9.53;2.30;;;;;;;14.74;60.79;100938.38;4986504;28;20141;-64
2021/10/26 05:58:25;;;;;;;4.00;1.70;;;;;;;14.77;60.65;100949.03;4980336;28;20109;-66
2021/10/26 06:00:52;;;;;;;4.70;1.63;;;;;;;14.78;60.53;100933.84;4978666;28;20064;-66
2021/10/26 06:03:20;;;;;;;3.27;1.67;;;;;;;14.74;60.13;100932.78;4985018;28;20100;-65
2021/10/26 06:05:46;;;;;;;2.63;1.40;;;;;;;14.91;59.82;100938.75;4987451;28;20077;-65
2021/10/26 06:08:13;;;;;;;6.87;2.23;;;;;;;15.02;59.73;100949.84;4986678;28;20054;-65
2021/10/26 06:10:45;;;;;;;4.77;2.20;;;;;;;14.89;59.38;100943.81;4986386;28;20133;-63
2021/10/26 06:13:18;;;;;;;3.47;1.83;;;;;;;14.97;59.60;100953.56;4976156;28;20117;-65
2021/10/26 06:15:45;;;;;;;8.50;3.33;;;;;;;15.01;59.44;100954.66;4979898;28;20054;-65
2021/10/26 06:18:18;;;;;;;4.87;2.07;;;;;;;15.07;58.96;100949.78;4983803;28;20137;-65
2021/10/26 06:20:45;;;;;;;3.17;1.60;;;;;;;15.10;58.97;100952.81;4988485;28;20130;-69
2021/10/26 06:23:12;;;;;;;5.27;2.00;;;;;;;15.00;58.92;100941.72;4981254;28;20137;-65
2021/10/26 06:25:39;;;;;;;3.90;2.27;;;;;;;14.86;58.65;100916.28;4983538;28;20473;-64
2021/10/26 06:28:06;;;;;;;3.73;2.37;;;;;;;15.08;58.64;100938.25;4984973;28;20065;-66
2021/10/26 06:30:33;;;;;;;8.57;3.77;;;;;;;15.13;58.96;100954.19;4980388;28;20093;-67
2021/10/26 06:33:00;;;;;;;7.37;3.63;;;;;;;14.99;59.02;100951.28;4985081;28;20125;-63
2021/10/26 06:35:27;;;;;;;9.87;3.50;;;;;;;14.87;59.12;100959.31;4981551;28;20081;-64
2021/10/26 06:37:54;;;;;;;6.43;2.60;;;;;;;14.75;59.43;100967.34;4987722;28;20133;-65
2021/10/26 06:40:21;;;;;;;8.00;2.63;;;;;;;14.63;59.33;100950.88;4984994;28;20138;-68
2021/10/26 06:42:49;;;;;;;4.50;2.00;;;;;;;14.63;59.65;100964.91;4983461;28;20046;-64
2021/10/26 06:45:15;;;;;;;4.63;2.60;;;;;;;14.62;59.73;100968.88;4984307;28;20050;-65
2021/10/26 06:47:43;;;;;;;3.83;2.00;;;;;;;14.60;59.33;100977.63;4982350;28;20479;-65
2021/10/26 06:50:10;;;;;;;4.73;2.87;;;;;;;14.46;59.16;100960.59;4982932;28;20081;-65
2021/10/26 06:52:37;;;;;;;12.47;2.67;;;;;;;14.59;59.28;100977.91;4983371;28;20093;-65
2021/10/26 06:55:05;;;;;;;5.93;2.20;;;;;;;14.52;59.21;100966.16;4991782;28;20078;-66
2021/10/26 06:57:33;;;;;;;6.43;2.50;;;;;;;14.65;59.26;100987.97;4988560;28;20065;-66
2021/10/26 07:00:01;;;;;;;6.83;2.40;;;;;;;14.56;59.28;100986.91;4992086;28;20070;-66
2021/10/26 07:02:27;;;;;;;3.43;2.00;;;;;;;14.61;59.30;100998.13;4979700;28;20521;-66
2021/10/26 07:05:01;;;;;;;7.00;2.75;;;;;;;14.61;59.25;100992.50;4974677;28;20104;-67
2021/10/26 07:07:28;;;;;;;6.07;3.20;;;;;;;14.71;59.24;100997.19;4991152;28;20051;-66
2021/10/26 07:09:55;;;;;;;3.10;2.27;;;;;;;14.73;58.97;100995.72;4995897;28;20082;-66
2021/10/26 07:12:22;;;;;;;6.90;3.10;;;;;;;14.67;58.94;100982.88;4991713;28;20447;-66
2021/10/26 07:14:49;;;;;;;5.27;2.70;;;;;;;14.75;58.99;100999.09;4984714;28;20133;-66
2021/10/26 07:17:16;;;;;;;6.23;3.00;;;;;;;14.74;58.98;101008.69;4979110;28;20125;-66
2021/10/26 07:19:43;;;;;;;9.40;3.00;;;;;;;14.70;59.29;101004.78;4976352;28;20082;-66
2021/10/26 07:22:10;;;;;;;13.97;4.50;;;;;;;14.75;59.25;101006.69;4988854;28;20074;-66
2021/10/26 07:24:37;;;;;;;7.00;4.07;;;;;;;14.76;59.41;101009.19;4995453;28;20463;-66
2021/10/26 07:27:05;;;;;;;6.20;3.07;;;;;;;14.76;59.38;100999.94;4995486;28;20413;-66
2021/10/26 07:29:32;;;;;;;6.40;3.13;;;;;;;14.92;59.18;101013.53;4995423;28;20050;-66
2021/10/26 07:31:59;;;;;;;6.43;3.27;;;;;;;15.10;59.01;101014.72;4983248;28;20078;-66
2021/10/26 07:34:26;;;;;;;7.43;2.70;;;;;;;15.26;58.58;101006.94;4976429;28;20121;-66
2021/10/26 07:36:53;;;;;;;8.53;2.90;;;;;;;15.43;58.25;101014.03;4990759;28;20050;-66
2021/10/26 07:39:32;;;;;;;6.07;3.17;;;;;;;15.59;58.58;101018.31;4995365;28;20125;-66
2021/10/26 07:42:00;;;;;;;6.57;3.10;;;;;;;15.75;57.77;101025.41;4985227;28;20462;-66
2021/10/26 07:44:29;;;;;;;8.63;3.10;;;;;;;15.85;57.72;101004.72;4987468;28;20516;-67
2021/10/26 07:46:59;;;;;;;5.10;2.25;;;;;;;16.13;57.35;101031.03;4995438;28;20590;-66
2021/10/26 07:49:27;;;;;;;7.13;3.00;;;;;;;16.31;56.85;101012.44;4985990;28;20514;-67
2021/10/26 07:51:59;;;;;;;5.53;2.60;;;;;;;16.62;56.35;101021.19;4986690;28;20473;-67
2021/10/26 07:54:26;;;;;;;5.05;2.10;;;;;;;16.81;55.90;101030.44;4994775;28;20081;-66
2021/10/26 07:57:00;;;;;;;3.03;2.03;;;;;;;17.03;55.34;101032.56;4981225;28;20093;-66
2021/10/26 07:59:27;;;;;;;5.22;2.28;;;;;;;16.96;54.65;100983.34;4989954;28;20145;-66
2021/10/26 08:01:54;;;;;;;8.00;2.67;;;;;;;17.55;54.31;101052.09;4978648;28;20078;-66
2021/10/26 08:04:21;;;;;;;9.68;3.05;;;;;;;17.86;53.93;101049.47;4977564;28;20125;-66
2021/10/26 08:06:48;;;;;;;5.15;2.42;;;;;;;18.15;53.75;101045.38;4976779;28;20051;-65
2021/10/26 08:09:17;;;;;;;4.38;2.75;;;;;;;18.48;52.71;101035.50;4991456;28;20710;-66
2021/10/26 08:11:44;;;;;;;5.35;3.00;;;;;;;18.90;52.46;101040.94;4985213;28;20105;-66
2021/10/26 08:14:12;;;;;;;3.83;1.88;;;;;;;19.25;51.79;101043.91;4989877;28;20078;-67
2021/10/26 08:16:39;;;;;;;3.55;2.65;;;;;;;19.35;50.75;101044.47;4990960;28;20137;-66
2021/10/26 08:19:06;;;;;;;6.68;2.47;;;;;;;19.43;49.84;101034.34;4987757;28;20129;-67
2021/10/26 08:21:33;;;;;;;2.88;1.73;;;;;;;19.48;49.41;101007.84;4986333;28;20129;-67
2021/10/26 08:24:01;;;;;;;6.88;1.67;;;;;;;19.49;48.18;101015.19;4990800;28;20088;-66
2021/10/26 08:26:38;;;;;;;3.63;1.42;;;;;;;19.61;47.63;101047.38;4993431;28;20057;-66
2021/10/26 08:34:50;;;;;;;5.43;2.15;;;;;;;20.53;46.31;101021.78;4991193;28;20042;-66
2021/10/26 08:37:17;;;;;;;4.70;1.67;;;;;;;20.74;45.26;101055.13;4991101;28;20085;-66
2021/10/26 08:39:45;;;;;;;5.50;2.10;;;;;;;20.98;45.01;101052.53;4993576;28;20125;-65
2021/10/26 08:42:16;;;;;;;3.38;1.67;;;;;;;21.39;44.44;101053.09;4993424;28;20133;-66
2021/10/26 08:44:43;;;;;;;3.60;2.25;;;;;;;21.45;43.47;101049.72;4984879;28;20138;-66
2021/10/26 08:47:14;;;;;;;3.03;1.77;;;;;;;21.58;42.81;101032.78;4977370;28;20121;-66
2021/10/26 08:49:45;;;;;;;4.20;2.08;;;;;;;21.32;42.26;101036.53;4983611;28;20126;-66
2021/10/26 08:52:13;;;;;;;1.63;1.30;;;;;;;21.46;42.83;101054.22;4990286;28;20133;-65
2021/10/26 08:54:40;;;;;;;9.45;2.25;;;;;;;21.19;41.95;101046.13;4990903;28;20125;-66
2021/10/26 08:57:07;;;;;;;3.45;1.60;;;;;;;21.28;42.04;101041.25;4986172;28;20461;-66
2021/10/26 08:59:34;;;;;;;6.50;3.00;;;;;;;21.44;41.90;100999.75;4993199;28;20074;-65
2021/10/26 09:02:00;;;;;;;7.15;2.80;;;;;;;21.82;41.37;101052.84;4988314;28;20464;-66
2021/10/26 09:04:32;;;;;;;4.97;2.42;;;;;;;22.24;41.35;101041.50;4978656;28;20458;-64
2021/10/26 09:07:04;;;;;;;3.70;2.28;;;;;;;22.61;41.21;101033.13;4987523;28;20499;-65
2021/10/26 09:09:39;;;;;;;5.25;2.28;;;;;;;23.51;40.80;101037.91;4992267;28;20491;-65
2021/10/26 09:17:56;;;;;;;3.10;2.65;;;;;;;24.62;39.07;101038.53;4982054;28;20077;-66
2021/10/26 09:20:27;;;;;;;6.05;2.92;;;;;;;25.52;38.49;101036.03;4986242;28;20082;-66
2021/10/26 09:22:56;;;;;;;3.17;2.30;;;;;;;26.09;37.71;101028.81;4973318;28;20129;-66
2021/10/26 09:25:36;;;;;;;8.00;3.70;;;;;;;26.06;36.67;101031.59;4982978;28;20082;-65
2021/10/26 09:28:17;;;;;;;7.45;2.92;;;;;;;26.61;36.68;101036.09;4982069;28;20117;-66
2021/10/26 09:31:08;;;;;;;4.00;2.70;;;;;;;27.21;36.32;101017.56;4977050;28;20158;-66
2021/10/26 09:33:38;;;;;;;5.22;2.50;;;;;;;27.50;34.91;101024.63;4982457;28;20197;-66
2021/10/26 09:36:33;;;;;;;4.55;2.17;;;;;;;27.40;35.42;101026.09;4989752;28;20129;-65
2021/10/26 09:39:03;;;;;;;5.30;3.00;;;;;;;27.49;34.47;101022.94;4980099;28;20050;-65
2021/10/26 09:41:58;;;;;;;6.40;3.00;;;;;;;27.66;34.38;101022.44;4990160;28;20467;-65
2021/10/26 09:44:28;;;;;;;9.10;2.50;;;;;;;28.04;33.90;101015.63;4991943;28;20081;-66
2021/10/26 09:47:20;;;;;;;3.58;2.22;;;;;;;28.29;34.03;101015.13;4977209;28;20129;-66
2021/10/26 09:49:54;;;;;;;5.88;2.60;;;;;;;28.81;33.07;101019.06;4977673;28;20078;-67
2021/10/26 09:52:27;;;;;;;4.70;2.65;;;;;;;28.46;31.95;101003.06;4988053;28;20225;-66
2021/10/26 09:55:13;;;;;;;6.28;3.30;;;;;;;28.13;32.82;101011.63;4988541;28;20043;-66
2021/10/26 09:57:43;;;;;;;7.03;3.85;;;;;;;27.78;32.48;101013.59;4980613;28;20053;-66
2021/10/26 10:00:11;;;;;;;4.25;3.15;;;;;;;27.52;32.52;101007.84;4985863;28;20408;-66
2021/10/26 10:02:39;;;;;;;3.85;2.70;;;;;;;27.38;32.92;101009.28;4980625;28;20046;-66
2021/10/26 10:05:08;;;;;;;5.95;3.30;;;;;;;26.83;32.70;100997.19;4984698;28;20070;-65
2021/10/26 10:07:37;;;;;;;5.00;3.47;;;;;;;26.76;33.05;101001.97;4990614;28;20174;-65
2021/10/26 10:10:07;;;;;;;7.68;3.30;;;;;;;27.15;33.08;100999.88;4985116;28;20184;-65
2021/10/26 10:12:39;;;;;;;7.90;3.38;;;;;;;27.86;32.80;101003.91;4981780;28;20046;-65
2021/10/26 10:15:07;;;;;;;6.50;3.53;;;;;;;28.36;32.42;101003.72;4990662;28;20050;-65
2021/10/26 10:17:35;;;;;;;7.05;3.30;;;;;;;27.69;31.49;101015.06;4982487;28;20125;-66
2021/10/26 10:20:09;;;;;;;4.20;2.50;;;;;;;26.52;30.92;101003.97;4987146;28;20126;-66
2021/10/26 10:22:39;;;;;;;7.43;3.03;;;;;;;26.11;31.53;101006.38;4980320;28;20145;-67
2021/10/26 10:25:09;;;;;;;6.43;2.63;;;;;;;25.96;31.99;100998.69;4987265;28;20074;-65
2021/10/26 10:27:39;;;;;;;3.40;2.10;;;;;;;25.39;31.83;100991.59;4980825;28;20074;-64
2021/10/26 10:30:09;;;;;;;6.53;3.30;;;;;;;24.93;32.88;101006.34;4974320;28;20082;-65
2021/10/26 10:32:38;;;;;;;3.80;3.13;;;;;;;24.90;33.30;101006.22;4984450;28;20115;-65
2021/10/26 10:35:08;;;;;;;10.63;4.28;;;;;;;25.48;33.69;100990.19;4991334;28;20129;-64
2021/10/26 10:37:35;;;;;;;6.63;3.13;;;;;;;26.31;32.80;100994.94;4989208;28;20054;-65
2021/10/26 10:40:05;;;;;;;9.73;3.33;;;;;;;26.76;32.61;100999.94;4991120;28;20078;-66
2021/10/26 10:42:48;;;;;;;5.13;3.40;;;;;;;26.79;31.58;100992.63;4975266;28;20101;-66
2021/10/26 10:45:27;;;;;;;6.57;3.17;;;;;;;26.67;31.52;101008.78;4981657;28;20112;-65
2021/10/26 10:47:55;;;;;;;5.63;3.42;;;;;;;27.35;31.83;101003.47;4989108;28;20526;-66
2021/10/26 10:50:32;;;;;;;5.93;2.72;;;;;;;27.67;30.98;101006.03;4991347;28;20084;-66
2021/10/26 10:53:09;;;;;;;5.32;3.80;;;;;;;27.20;31.11;101007.31;4987991;28;20126;-65
2021/10/26 10:55:37;;;;;;;4.70;3.72;;;;;;;26.60;30.70;101000.06;4991993;28;20074;-65
2021/10/26 10:58:23;;;;;;;4.83;2.87;;;;;;;26.02;31.21;100991.47;4978145;28;20057;-65
2021/10/26 11:01:18;;;;;;;4.68;3.22;;;;;;;26.02;31.90;101008.63;4978371;28;20835;-64
2021/10/26 11:03:46;;;;;;;4.80;2.50;;;;;;;25.98;31.27;101014.28;4991132;28;20131;-65
2021/10/26 11:06:41;;;;;;;9.90;3.28;;;;;;;26.07;31.79;101008.31;4992808;28;20082;-64
2021/10/26 11:09:30;;;;;;;7.82;3.75;;;;;;;26.87;31.16;100994.41;4992065;28;20549;-64
2021/10/26 11:12:06;;;;;;;6.35;3.55;;;;;;;26.84;30.65;100995.19;4989045;28;20093;-64
2021/10/26 11:14:56;;;;;;;5.30;3.10;;;;;;;27.05;30.80;100989.84;4980677;28;20089;-65
2021/10/26 11:17:32;;;;;;;7.72;3.60;;;;;;;27.91;30.32;100985.50;4977451;28;20050;-65
2021/10/26 11:20:07;;;;;;;9.23;3.83;;;;;;;28.70;29.26;100998.00;4992325;28;20046;-65
2021/10/26 11:22:54;;;;;;;3.78;3.38;;;;;;;28.79;29.30;100992.78;4975818;28;20282;-65
2021/10/26 11:25:36;;;;;;;5.00;2.58;;;;;;;29.07;28.24;100998.00;4986971;28;20141;-65
2021/10/26 11:28:18;;;;;;;4.97;3.03;;;;;;;28.51;27.86;101011.34;4978257;28;20081;-66
2021/10/26 11:30:44;;;;;;;4.90;3.35;;;;;;;28.69;27.60;101010.72;4983688;28;20538;-66
2021/10/26 11:33:14;;;;;;;6.10;3.83;;;;;;;28.74;27.53;100990.22;4988824;28;20493;-67
2021/10/26 11:36:05;;;;;;;6.47;3.80;;;;;;;29.31;27.46;100993.69;4975248;28;20042;-66
2021/10/26 11:38:41;;;;;;;5.88;3.90;;;;;;;30.20;26.88;101002.13;4978790;28;20281;-67
2021/10/26 11:41:12;;;;;;;9.48;4.55;;;;;;;31.00;26.55;101004.03;4987788;28;20186;-67
2021/10/26 11:43:44;;;;;;;6.75;3.90;;;;;;;31.77;25.45;100993.72;4982250;28;20535;-66